Flight Track Log - Related Links

Times and Time Zones

All times are in EDT time to prevent confusion due to time zone crossing. See the ASQ4576 flight status page for this flight to view local times or setup timezone preferences in your user account.

Time Position Orientation Groundspeed Altitude Reporting Facility
EDT Latitude Longitude Course Direction KTS MPH feet Rate Location/Type
Wed 04:46:44 PM 40.6667 -74.1833 North 170 196 1,200  Level New York TRACON
Wed 04:47:44 PM 40.6333 -74.2333 229° Southwest 226 260 2,900 2,200 Climbing New York TRACON
Wed 04:48:44 PM 40.6667 -74.3000 303° West 256 295 5,600 2,700 Climbing New York TRACON
Wed 04:49:44 PM 40.7167 -74.3667 315° West 272 313 8,300 1,750 Climbing New York TRACON
Wed 04:50:00 PM 40.9804 -74.5109 319° Northwest  Level FlightAware Approximate
Wed 04:50:44 PM 40.7833 -74.4167 330° Northwest 276 318 9,100  Level New York TRACON
Wed 04:51:00 PM 41.0528 -74.6012 316° Northwest  Level FlightAware Approximate
Wed 04:51:44 PM 40.8500 -74.4667 330° Northwest 276 318 9,100  Level New York TRACON
Wed 04:52:00 PM 41.1271 -74.6833 North  Level FlightAware Approximate
Wed 04:52:02 PM 40.8842 -74.4956 327° Northwest 273 314 9,000  Level New York Center
Wed 04:53:04 PM 40.9569 -74.4969 359° North 291 335 9,000 246 Level New York Center
Wed 04:54:04 PM 41.0331 -74.4625 19° North 308 354 9,500 992 Climbing New York Center
Wed 04:55:05 PM 41.1097 -74.4117 27° Northeast 343 395 11,000 1,537 Climbing New York Center
Wed 04:56:05 PM 41.1789 -74.4594 333° Northwest 312 359 12,600 1,744 Climbing New York Center
Wed 04:57:02 PM 41.1603 -74.5908 259° West 272 313 14,400 1,613 Climbing New York Center
Wed 04:58:04 PM 41.1483 -74.7031 262° West 314 361 15,800 1,574 Climbing New York Center
Wed 04:59:04 PM 41.1958 -74.8353 296° West 342 394 17,600 1,587 Climbing New York Center
Wed 05:00:05 PM 41.2481 -74.9517 301° West 359 413 19,000 1,311 Climbing New York Center
Wed 05:01:03 PM 41.3019 -75.0736 300° West 371 427 20,200 1,160 Climbing New York Center
Wed 05:02:04 PM 41.3517 -75.1956 299° West 377 434 21,300 1,230 Climbing New York Center
Wed 05:03:05 PM 41.4053 -75.3181 300° West 383 441 22,700 1,373 Climbing New York Center
Wed 05:04:02 PM 41.4589 -75.4408 300° West 383 441 24,000 1,271 Climbing New York Center
Wed 05:05:03 PM 41.5017 -75.5683 294° West 383 441 25,200 992 Climbing New York Center
Wed 05:06:03 PM 41.5397 -75.7042 291° West 385 443 26,000 900 Climbing New York Center
Wed 05:07:03 PM 41.5775 -75.8428 290° West 391 450 27,000 992 Climbing New York Center
Wed 05:08:04 PM 41.6175 -75.9792 291° West 398 458 28,000 984 Climbing New York Center
Wed 05:09:05 PM 41.6572 -76.1183 291° West 398 458 29,000 1,000 Climbing New York Center
Wed 05:10:04 PM 41.6950 -76.2464 292° West 398 458 30,000 504 Climbing New York Center
Wed 05:11:04 PM 41.7342 -76.3911 290° West 405 466 30,000  Level New York Center
Wed 05:12:05 PM 41.7783 -76.5564 290° West 413 475 30,000  Level New York Center
Wed 05:12:36 PM 41.8031 -76.6497 290° West 427 491 30,000  Level Cleveland Center
Wed 05:13:36 PM 41.8408 -76.7811 291° West 448 516 30,000 250 Level Cleveland Center
Wed 05:14:36 PM 41.8833 -76.9347 290° West 448 516 30,500 700 Climbing Cleveland Center
Wed 05:15:36 PM 41.9233 -77.0833 290° West 437 503 31,400 750 Climbing Cleveland Center
Wed 05:16:36 PM 41.9633 -77.2319 290° West 432 497 32,000 300 Climbing Cleveland Center
Wed 05:17:36 PM 42.0050 -77.3836 290° West 432 497 32,000  Level Cleveland Center
Wed 05:18:36 PM 42.0447 -77.5408 289° West 432 497 32,000  Level Cleveland Center
Wed 05:19:36 PM 42.0883 -77.6956 291° West 439 505 32,000  Level Cleveland Center
Wed 05:20:36 PM 42.1297 -77.8533 290° West 439 505 32,000  Level Cleveland Center
Wed 05:21:36 PM 42.1708 -78.0083 290° West 439 505 32,000  Level Cleveland Center
Wed 05:22:36 PM 42.2119 -78.1667 289° West 439 505 32,000  Level Cleveland Center
Wed 05:23:36 PM 42.2506 -78.3222 289° West 439 505 32,000  Level Cleveland Center
Wed 05:24:36 PM 42.2931 -78.4781 290° West 439 505 32,000  Level Cleveland Center
Wed 05:25:36 PM 42.3314 -78.6394 288° West 439 505 32,000  Level Cleveland Center
Wed 05:26:36 PM 42.3733 -78.7928 290° West 439 505 32,000  Level Cleveland Center
Wed 05:27:36 PM 42.4133 -78.9661 287° West 439 505 32,000  Level Cleveland Center
Wed 05:28:36 PM 42.4553 -79.1256 290° West 439 505 32,000  Level Cleveland Center
Wed 05:29:36 PM 42.4881 -79.2683 287° West 444 511 32,000  Level Cleveland Center
Wed 05:30:36 PM 42.4983 -79.4342 275° West 439 505 32,000  Level Cleveland Center
Wed 05:31:36 PM 42.5103 -79.5944 276° West 434 499 32,000  Level Cleveland Center
Wed 05:32:36 PM 42.5156 -79.7550 273° West 434 499 32,000  Level Cleveland Center
Wed 05:33:36 PM 42.5250 -79.9183 275° West 434 499 32,000  Level Cleveland Center
Wed 05:34:36 PM 42.5300 -80.0817 272° West 434 499 32,000  Level Cleveland Center
Wed 05:35:36 PM 42.5369 -80.2422 273° West 439 505 32,000  Level Cleveland Center
Wed 05:36:36 PM 42.5414 -80.4056 272° West 439 505 32,000  Level Cleveland Center
Wed 05:37:36 PM 42.5478 -80.5606 273° West 439 505 32,000  Level Cleveland Center
Wed 05:38:36 PM 42.5561 -80.7183 274° West 427 491 32,000  Level Cleveland Center
Wed 05:39:36 PM 42.5619 -80.8792 273° West 416 479 32,000  Level Cleveland Center
Wed 05:40:36 PM 42.5656 -81.0314 272° West 421 484 32,000  Level Cleveland Center
Wed 05:41:36 PM 42.5711 -81.2064 273° West 421 484 32,000  Level Cleveland Center
Wed 05:42:36 PM 42.5825 -81.3614 276° West 421 484 32,000  Level Cleveland Center
Wed 05:43:36 PM 42.5939 -81.5139 276° West 421 484 32,000  Level Cleveland Center
Wed 05:44:36 PM 42.6092 -81.6719 278° West 430 495 32,000  Level Cleveland Center
Wed 05:45:36 PM 42.6222 -81.8275 277° West 425 489 32,000  Level Cleveland Center
Wed 05:46:36 PM 42.6372 -81.9831 278° West 425 489 32,000  Level Cleveland Center
Wed 05:47:36 PM 42.6497 -82.1442 276° West 425 489 32,000  Level Cleveland Center
Wed 05:48:36 PM 42.6619 -82.2997 276° West 425 489 32,000 -400 Level Cleveland Center
Wed 05:49:36 PM 42.6742 -82.4583 276° West 425 489 31,200 -900 Descending Cleveland Center
Wed 05:50:36 PM 42.6881 -82.6169 277° West 425 489 30,200 -1,000 Descending Cleveland Center
Wed 05:51:36 PM 42.6997 -82.7783 276° West 425 489 29,200 -1,150 Descending Cleveland Center
Wed 05:52:36 PM 42.7111 -82.9397 276° West 425 489 27,900 -1,400 Descending Cleveland Center
Wed 05:53:36 PM 42.7244 -83.1014 276° West 425 489 26,400 -1,350 Descending Cleveland Center
Wed 05:54:36 PM 42.7353 -83.2631 275° West 425 489 25,200 -950 Descending Cleveland Center
Wed 05:55:36 PM 42.7175 -83.4036 260° West 404 465 24,500 -650 Descending Cleveland Center
Wed 05:56:36 PM 42.6975 -83.5383 259° West 384 442 23,900 -700 Descending Cleveland Center
Wed 05:57:36 PM 42.6750 -83.6783 258° West 379 436 23,100 -900 Descending Cleveland Center
Wed 05:58:36 PM 42.6544 -83.8158 259° West 379 436 22,100 -700 Descending Cleveland Center
Wed 05:59:36 PM 42.7158 -83.9350 305° West 347 399 21,700 -650 Descending Cleveland Center
Wed 06:00:36 PM 42.8264 -84.0031 336° Northwest 362 417 20,800 -850 Descending Cleveland Center
Wed 06:01:36 PM 42.9325 -84.0769 333° Northwest 393 452 20,000 -1,000 Descending Cleveland Center
Wed 06:02:36 PM 43.0192 -84.1700 322° Northwest 406 467 18,800 -1,744 Descending Cleveland Center
Wed 06:03:02 PM 43.0361 -84.2258 293° West 395 455 17,500 -2,864 Descending Chicago Center
Wed 06:04:04 PM 43.0406 -84.3592 273° West 359 413 14,600 -2,613 Descending Chicago Center
Wed 06:05:06 PM 43.0264 -84.4872 261° West 341 392 12,100 -1,935 Descending Chicago Center
Wed 06:06:08 PM 43.0108 -84.6011 259° West 311 358 10,600 -1,548 Descending Chicago Center
Wed 06:07:10 PM 42.9969 -84.7014 259° West 276 318 8,900 -1,306 Descending Chicago Center
Wed 06:08:12 PM 42.9683 -84.8097 250° West 258 297 7,900 -816 Descending Chicago Center
Wed 06:09:15 PM 42.9439 -84.8958 249° West 247 284 7,200 -672 Descending Chicago Center
Wed 06:10:17 PM 42.9383 -84.9861 265° West 243 280 6,500 -774 Descending Chicago Center
Wed 06:11:19 PM 42.9286 -85.0744 261° West 237 273 5,600 -871 Descending Chicago Center
Wed 06:12:21 PM 42.9192 -85.1633 262° West 237 273 4,700 -823 Descending Chicago Center
Wed 06:13:23 PM 42.9097 -85.2503 262° West 234 269 3,900 -823 Descending Chicago Center
Wed 06:14:25 PM 42.8981 -85.3478 261° West 222 255 3,000 -871 Descending Chicago Center

Login

Don't have an account? Register now (free) for customized features, flight alerts, and more!